Time;durP1;ratioP1;P1;durP2;ratioP2;P2;SDS_P1;SDS_P2;PMS_P1;PMS_P2;Temp;Humidity;BMP_temperature;BMP_pressure;BME280_temperature;BME280_humidity;BME280_pressure;Samples;Min_cycle;Max_cycle;Signal;HPM_P1;HPM_P2
2021/11/03 00:01:26;;;;;;;;;;;8.30;96.10;;;;;;5029905;28;19913;-83
2021/11/03 00:03:52;;;;;;;;;;;8.30;96.00;;;;;;5033002;28;19927;-84
2021/11/03 00:06:19;;;;;;;;;;;8.30;96.00;;;;;;5029845;28;20361;-83
2021/11/03 00:08:45;;;;;;;;;;;8.20;95.90;;;;;;5034530;28;19917;-83
2021/11/03 00:11:11;;;;;;;;;;;8.10;96.00;;;;;;5034733;28;19913;-84
2021/11/03 00:13:37;;;;;;;;;;;8.00;96.00;;;;;;5034724;28;19921;-83
2021/11/03 00:16:02;;;;;;;;;;;8.10;96.10;;;;;;5026778;28;20277;-83
2021/11/03 00:18:28;;;;;;;;;;;8.10;96.00;;;;;;5020960;28;20289;-83
2021/11/03 00:20:55;;;;;;;;;;;8.10;96.00;;;;;;5033090;28;19952;-83
2021/11/03 00:23:20;;;;;;;;;;;8.10;96.00;;;;;;5034706;28;19921;-83
2021/11/03 00:25:46;;;;;;;;;;;8.10;96.00;;;;;;5034088;28;20328;-83
2021/11/03 00:28:12;;;;;;;;;;;8.20;96.00;;;;;;5027454;28;20340;-83
2021/11/03 00:30:38;;;;;;;;;;;8.20;96.00;;;;;;5028380;28;20325;-83
2021/11/03 00:33:03;;;;;;;;;;;8.20;95.90;;;;;;5026255;28;19925;-84
2021/11/03 00:35:29;;;;;;;;;;;8.20;96.00;;;;;;5034776;28;19967;-84
2021/11/03 00:37:54;;;;;;;;;;;8.20;96.00;;;;;;5034095;28;19925;-83
2021/11/03 00:40:20;;;;;;;;;;;8.20;96.00;;;;;;5027009;28;19917;-84
2021/11/03 00:42:46;;;;;;;;;;;8.10;95.90;;;;;;5034169;28;19983;-84
2021/11/03 00:45:11;;;;;;;;;;;8.10;95.90;;;;;;5026877;28;19913;-83
2021/11/03 00:47:37;;;;;;;;;;;8.00;95.90;;;;;;5027114;28;19983;-83
2021/11/03 00:50:03;;;;;;;;;;;8.00;95.90;;;;;;5033955;28;19913;-83
2021/11/03 00:52:29;;;;;;;;;;;7.90;95.90;;;;;;5034223;28;20018;-83
2021/11/03 00:54:54;;;;;;;;;;;7.80;95.90;;;;;;5026309;28;19913;-83
2021/11/03 00:57:20;;;;;;;;;;;7.80;95.90;;;;;;5026467;28;19987;-84
2021/11/03 00:59:45;;;;;;;;;;;7.70;95.80;;;;;;5026797;28;19913;-84
2021/11/03 01:02:11;;;;;;;;;;;7.70;95.80;;;;;;5026347;28;19975;-83
2021/11/03 01:04:36;;;;;;;;;;;7.60;95.80;;;;;;5034484;28;19975;-83
2021/11/03 01:07:03;;;;;;;;;;;7.60;95.70;;;;;;5032563;28;19920;-83
2021/11/03 01:09:28;;;;;;;;;;;7.50;95.70;;;;;;5027207;28;19956;-83
2021/11/03 01:11:54;;;;;;;;;;;7.30;95.70;;;;;;5034228;28;20014;-83
2021/11/03 01:14:20;;;;;;;;;;;7.30;95.80;;;;;;5030191;28;19980;-82
2021/11/03 01:16:46;;;;;;;;;;;7.20;95.80;;;;;;5029217;28;20281;-83
2021/11/03 01:19:11;;;;;;;;;;;7.20;95.80;;;;;;5033347;28;19913;-83
2021/11/03 01:21:38;;;;;;;;;;;7.20;95.80;;;;;;5028266;28;19960;-83
2021/11/03 01:24:03;;;;;;;;;;;7.20;95.80;;;;;;5030785;28;19913;-82
2021/11/03 01:26:29;;;;;;;;;;;7.10;95.80;;;;;;5033650;28;20299;-83
2021/11/03 01:28:54;;;;;;;;;;;7.20;95.70;;;;;;5026531;28;19959;-83
2021/11/03 01:31:20;;;;;;;;;;;7.20;96.00;;;;;;5023048;28;20369;-84
2021/11/03 01:33:45;;;;;;;;;;;7.10;95.70;;;;;;5028481;28;20395;-83
2021/11/03 01:36:11;;;;;;;;;;;7.20;95.80;;;;;;5023818;28;20381;-83
2021/11/03 01:38:37;;;;;;;;;;;7.20;95.70;;;;;;5033681;28;19968;-84
2021/11/03 01:41:02;;;;;;;;;;;7.10;95.70;;;;;;5033869;28;20007;-84
2021/11/03 01:43:33;;;;;;;;;;;7.10;95.70;;;;;;5024608;28;20419;-84
2021/11/03 01:46:16;;;;;;;;;;;7.00;95.70;;;;;;5033730;28;19919;-84
2021/11/03 01:48:42;;;;;;;;;;;7.00;95.70;;;;;;5015183;28;20292;-83
2021/11/03 01:51:10;;;;;;;;;;;6.90;95.70;;;;;;5022402;28;20012;-84
2021/11/03 01:53:36;;;;;;;;;;;6.80;95.70;;;;;;5015085;28;19917;-83
2021/11/03 01:56:04;;;;;;;;;;;6.70;95.70;;;;;;5020638;28;19913;-83
2021/11/03 01:58:41;;;;;;;;;;;6.60;95.70;;;;;;5017240;28;19936;-84
2021/11/03 02:01:07;;;;;;;;;;;6.60;95.80;;;;;;5025594;28;19939;-83
2021/11/03 02:03:33;;;;;;;;;;;6.50;95.70;;;;;;5029367;28;20336;-83
2021/11/03 02:06:02;;;;;;;;;;;6.40;95.70;;;;;;5021470;28;20365;-84
2021/11/03 02:08:29;;;;;;;;;;;6.40;95.80;;;;;;5030528;28;20377;-82
2021/11/03 02:10:54;;;;;;;;;;;6.30;95.80;;;;;;5031658;28;19949;-83
2021/11/03 02:13:20;;;;;;;;;;;6.30;95.80;;;;;;5032822;28;19956;-83
2021/11/03 02:15:46;;;;;;;;;;;6.30;95.80;;;;;;5025007;28;19921;-84
2021/11/03 02:18:14;;;;;;;;;;;6.30;95.80;;;;;;5025603;28;19969;-83
2021/11/03 02:20:41;;;;;;;;;;;6.30;95.70;;;;;;5017665;28;20506;-84
2021/11/03 02:23:16;;;;;;;;;;;6.20;95.60;;;;;;5033234;28;19914;-84
2021/11/03 02:25:46;;;;;;;;;;;6.20;95.70;;;;;;5022055;28;19951;-84
2021/11/03 02:28:12;;;;;;;;;;;6.20;95.70;;;;;;5029544;28;20050;-84
2021/11/03 02:30:38;;;;;;;;;;;6.10;95.60;;;;;;5032638;28;20439;-84
2021/11/03 02:33:07;;;;;;;;;;;6.10;95.60;;;;;;5024992;28;20004;-84
2021/11/03 02:35:33;;;;;;;;;;;6.10;95.70;;;;;;5032634;28;19920;-84
2021/11/03 02:37:59;;;;;;;;;;;6.10;95.60;;;;;;5032938;28;19921;-84
2021/11/03 02:40:27;;;;;;;;;;;6.10;95.60;;;;;;5024853;28;19944;-84
2021/11/03 02:42:57;;;;;;;;;;;6.20;95.60;;;;;;5032604;28;19921;-84
2021/11/03 02:45:55;;;;;;;;;;;6.10;95.50;;;;;;5031404;28;20380;-84
2021/11/03 02:48:22;;;;;;;;;;;6.10;95.50;;;;;;5009832;28;19923;-84
2021/11/03 02:50:51;;;;;;;;;;;6.10;95.60;;;;;;5032811;28;19920;-84
2021/11/03 02:53:17;;;;;;;;;;;6.00;95.60;;;;;;5025969;28;19917;-84
2021/11/03 02:55:42;;;;;;;;;;;6.00;95.70;;;;;;5031746;28;19975;-83
2021/11/03 02:58:08;;;;;;;;;;;6.10;95.80;;;;;;5032827;28;19921;-83
2021/11/03 03:00:33;;;;;;;;;;;6.10;95.90;;;;;;5021213;28;19918;-83
2021/11/03 03:02:59;;;;;;;;;;;6.10;95.80;;;;;;5032380;28;19920;-84
2021/11/03 03:05:25;;;;;;;;;;;6.20;95.80;;;;;;5032752;28;19913;-83
2021/11/03 03:07:50;;;;;;;;;;;6.20;95.80;;;;;;5024757;28;20415;-83
2021/11/03 03:10:16;;;;;;;;;;;6.20;95.70;;;;;;5032798;28;19913;-84
2021/11/03 03:12:42;;;;;;;;;;;6.20;95.70;;;;;;5032239;28;19913;-84
2021/11/03 03:15:07;;;;;;;;;;;6.20;95.70;;;;;;5027440;28;19960;-83
2021/11/03 03:17:33;;;;;;;;;;;6.20;95.70;;;;;;5035532;28;19940;-83
2021/11/03 03:19:58;;;;;;;;;;;6.20;95.80;;;;;;5036212;28;19963;-83
2021/11/03 03:22:24;;;;;;;;;;;6.20;95.70;;;;;;5028564;28;20012;-83
2021/11/03 03:24:49;;;;;;;;;;;6.30;95.80;;;;;;5035926;28;20366;-83
2021/11/03 03:27:15;;;;;;;;;;;6.30;95.80;;;;;;5036073;28;20320;-84
2021/11/03 03:29:41;;;;;;;;;;;6.40;95.80;;;;;;5028036;28;19924;-83
2021/11/03 03:32:07;;;;;;;;;;;6.40;95.80;;;;;;5035690;28;19913;-83
2021/11/03 03:34:33;;;;;;;;;;;6.50;95.80;;;;;;5035968;28;19913;-83
2021/11/03 03:36:58;;;;;;;;;;;6.50;95.80;;;;;;5027945;28;19928;-83
2021/11/03 03:39:25;;;;;;;;;;;6.50;95.80;;;;;;5035951;28;19940;-83
2021/11/03 03:41:52;;;;;;;;;;;6.50;95.70;;;;;;5033162;28;20015;-83
2021/11/03 03:44:18;;;;;;;;;;;6.60;95.70;;;;;;5029908;28;19913;-83
2021/11/03 03:46:43;;;;;;;;;;;6.60;95.70;;;;;;5034800;28;19913;-83
2021/11/03 03:49:08;;;;;;;;;;;6.60;95.70;;;;;;5031757;28;19937;-84
2021/11/03 03:51:34;;;;;;;;;;;6.60;95.70;;;;;;5032003;28;19913;-83
2021/11/03 03:54:00;;;;;;;;;;;6.60;95.70;;;;;;5035387;28;20008;-84
2021/11/03 03:56:25;;;;;;;;;;;6.60;95.70;;;;;;5035547;28;19921;-83
2021/11/03 03:58:51;;;;;;;;;;;6.60;95.70;;;;;;5033977;28;19943;-83
2021/11/03 04:01:19;;;;;;;;;;;6.60;95.70;;;;;;5035008;28;20281;-83
2021/11/03 04:03:45;;;;;;;;;;;6.50;95.70;;;;;;5027266;28;19913;-83
2021/11/03 04:06:12;;;;;;;;;;;6.50;95.70;;;;;;5027824;28;19924;-83
2021/11/03 04:08:37;;;;;;;;;;;6.50;95.70;;;;;;5035346;28;20353;-84
2021/11/03 04:11:03;;;;;;;;;;;6.40;95.80;;;;;;5032177;28;19928;-83
2021/11/03 04:13:28;;;;;;;;;;;6.40;95.80;;;;;;5030084;28;19959;-84
2021/11/03 04:15:54;;;;;;;;;;;6.40;95.80;;;;;;5049226;28;19983;-84
2021/11/03 04:18:20;;;;;;;;;;;6.40;95.80;;;;;;5020503;28;20316;-84
2021/11/03 04:20:45;;;;;;;;;;;6.40;95.80;;;;;;5027547;28;19916;-84
2021/11/03 04:23:11;;;;;;;;;;;6.40;95.70;;;;;;5024310;28;19979;-84
2021/11/03 04:25:37;;;;;;;;;;;6.30;95.70;;;;;;5022175;28;19909;-84
2021/11/03 04:28:03;;;;;;;;;;;6.30;95.70;;;;;;5035158;28;19913;-84
2021/11/03 04:30:29;;;;;;;;;;;6.20;95.70;;;;;;5034935;28;20000;-84
2021/11/03 04:32:54;;;;;;;;;;;6.10;95.70;;;;;;5027265;28;19959;-84
2021/11/03 04:35:20;;;;;;;;;;;6.10;95.70;;;;;;5035161;28;19948;-84
2021/11/03 04:37:45;;;;;;;;;;;6.00;95.70;;;;;;5035030;28;19972;-84
2021/11/03 04:40:14;;;;;;;;;;;5.90;95.70;;;;;;5026972;28;20935;-84
2021/11/03 04:42:39;;;;;;;;;;;5.80;95.80;;;;;;5034269;28;19913;-84
2021/11/03 04:45:05;;;;;;;;;;;5.80;95.90;;;;;;5032828;28;19916;-84
2021/11/03 04:47:31;;;;;;;;;;;5.80;95.90;;;;;;5024052;28;19954;-84
2021/11/03 04:49:58;;;;;;;;;;;5.90;95.90;;;;;;5023811;28;19909;-84
2021/11/03 04:52:24;;;;;;;;;;;5.90;95.80;;;;;;5031142;28;19914;-84
2021/11/03 04:54:49;;;;;;;;;;;5.90;95.80;;;;;;5029525;28;19916;-84
2021/11/03 04:57:17;;;;;;;;;;;5.80;95.80;;;;;;5033560;28;19968;-84
2021/11/03 04:59:43;;;;;;;;;;;5.80;95.80;;;;;;5020774;28;19918;-84
2021/11/03 05:02:08;;;;;;;;;;;5.80;95.80;;;;;;5032314;28;19920;-84
2021/11/03 05:04:33;;;;;;;;;;;5.80;95.80;;;;;;5034464;28;20334;-84
2021/11/03 05:06:59;;;;;;;;;;;5.80;95.70;;;;;;5026721;28;19917;-85
2021/11/03 05:09:24;;;;;;;;;;;5.80;95.70;;;;;;5026735;28;19920;-84
2021/11/03 05:11:50;;;;;;;;;;;5.80;95.70;;;;;;5033256;28;19914;-84
2021/11/03 05:14:15;;;;;;;;;;;5.80;95.70;;;;;;5031900;28;19966;-84
2021/11/03 05:16:41;;;;;;;;;;;5.80;95.70;;;;;;5027826;28;20258;-84
2021/11/03 05:19:07;;;;;;;;;;;5.80;95.60;;;;;;5034223;28;19924;-84
2021/11/03 05:21:35;;;;;;;;;;;5.80;95.70;;;;;;5025924;28;19913;-83
2021/11/03 05:24:01;;;;;;;;;;;5.90;95.80;;;;;;5033993;28;19923;-83
2021/11/03 05:26:26;;;;;;;;;;;5.90;95.70;;;;;;5024923;28;19920;-83
2021/11/03 05:28:54;;;;;;;;;;;6.00;95.80;;;;;;5019433;28;20036;-83
2021/11/03 05:31:20;;;;;;;;;;;6.00;95.70;;;;;;5025993;28;19913;-83
2021/11/03 05:33:46;;;;;;;;;;;6.10;95.80;;;;;;5033802;28;19923;-83
2021/11/03 05:36:19;;;;;;;;;;;6.10;95.80;;;;;;5027442;28;19913;-83
2021/11/03 05:38:44;;;;;;;;;;;6.10;95.70;;;;;;5032811;28;20024;-83
2021/11/03 05:41:10;;;;;;;;;;;6.10;95.80;;;;;;5032975;28;19957;-84
2021/11/03 05:43:35;;;;;;;;;;;6.10;95.80;;;;;;5032795;28;20347;-84
2021/11/03 05:46:01;;;;;;;;;;;6.20;95.80;;;;;;5033596;28;19931;-83
2021/11/03 05:48:27;;;;;;;;;;;6.20;95.80;;;;;;5033862;28;19913;-83
2021/11/03 05:50:53;;;;;;;;;;;6.10;95.70;;;;;;5025285;28;19913;-84
2021/11/03 05:53:18;;;;;;;;;;;6.10;95.70;;;;;;5028912;28;19913;-84
2021/11/03 05:55:45;;;;;;;;;;;6.00;95.70;;;;;;5022622;28;20322;-83
2021/11/03 05:58:10;;;;;;;;;;;6.10;95.80;;;;;;5025075;28;20169;-84
2021/11/03 06:00:36;;;;;;;;;;;6.10;95.80;;;;;;5032720;28;19936;-84
2021/11/03 06:03:02;;;;;;;;;;;6.00;95.70;;;;;;5033160;28;20284;-84
2021/11/03 06:05:28;;;;;;;;;;;6.00;95.70;;;;;;5025557;28;19920;-84
2021/11/03 06:07:54;;;;;;;;;;;6.00;95.70;;;;;;5033388;28;19913;-84
2021/11/03 06:10:39;;;;;;;;;;;6.00;95.70;;;;;;5024841;28;19999;-84
2021/11/03 06:13:05;;;;;;;;;;;6.00;95.70;;;;;;5024734;28;19917;-84
2021/11/03 06:15:32;;;;;;;;;;;6.10;95.70;;;;;;5033161;28;20419;-84
2021/11/03 06:17:58;;;;;;;;;;;6.10;95.70;;;;;;5033113;28;19921;-84
2021/11/03 06:20:24;;;;;;;;;;;6.10;95.60;;;;;;5023716;28;20000;-83
2021/11/03 06:22:50;;;;;;;;;;;6.10;95.70;;;;;;5032938;28;19945;-77
2021/11/03 06:25:16;;;;;;;;;;;6.10;95.70;;;;;;5024109;28;19920;-79
2021/11/03 06:27:42;;;;;;;;;;;6.10;95.70;;;;;;5032817;28;19913;-81
2021/11/03 06:30:09;;;;;;;;;;;6.10;95.70;;;;;;5032609;28;19913;-78
2021/11/03 06:32:35;;;;;;;;;;;6.20;95.70;;;;;;5024327;28;20004;-78
2021/11/03 06:35:02;;;;;;;;;;;6.20;95.70;;;;;;5032600;28;20396;-79
2021/11/03 06:37:27;;;;;;;;;;;6.20;95.70;;;;;;5032112;28;19928;-80
2021/11/03 06:39:52;;;;;;;;;;;6.30;95.70;;;;;;5024321;28;20297;-78
2021/11/03 06:42:18;;;;;;;;;;;6.30;95.70;;;;;;5031523;28;19913;-78
2021/11/03 06:44:43;;;;;;;;;;;6.30;95.70;;;;;;5032118;28;19913;-79
2021/11/03 06:47:09;;;;;;;;;;;6.30;95.70;;;;;;5024565;28;19924;-79
2021/11/03 06:49:34;;;;;;;;;;;6.30;95.70;;;;;;5036255;28;19913;-79
2021/11/03 06:52:00;;;;;;;;;;;6.30;95.70;;;;;;5036053;28;19927;-83
2021/11/03 06:54:26;;;;;;;;;;;6.30;95.70;;;;;;5022562;28;19920;-82
2021/11/03 06:56:52;;;;;;;;;;;6.30;95.70;;;;;;5033826;28;19913;-82
2021/11/03 06:59:18;;;;;;;;;;;6.30;95.70;;;;;;5036512;28;20293;-82
2021/11/03 07:01:44;;;;;;;;;;;6.30;95.70;;;;;;5028469;28;20003;-79
2021/11/03 07:04:10;;;;;;;;;;;6.30;95.70;;;;;;5035755;28;19968;-79
2021/11/03 07:06:35;;;;;;;;;;;6.30;95.60;;;;;;5036146;28;19913;-79
2021/11/03 07:09:02;;;;;;;;;;;6.40;95.60;;;;;;5027150;28;20000;-80
2021/11/03 07:11:28;;;;;;;;;;;6.40;95.70;;;;;;5035533;28;19931;-78
2021/11/03 07:13:54;;;;;;;;;;;6.40;95.60;;;;;;5035433;28;19919;-79
2021/11/03 07:16:20;;;;;;;;;;;6.40;95.60;;;;;;5027332;28;19929;-79
2021/11/03 07:18:45;;;;;;;;;;;6.40;95.60;;;;;;5035941;28;19928;-78
2021/11/03 07:21:10;;;;;;;;;;;6.40;95.60;;;;;;5035237;28;19925;-79
2021/11/03 07:23:36;;;;;;;;;;;6.40;95.60;;;;;;5026450;28;19920;-79
2021/11/03 07:26:01;;;;;;;;;;;6.50;95.60;;;;;;5035798;28;19913;-79
2021/11/03 07:28:27;;;;;;;;;;;6.50;95.60;;;;;;5033960;28;20008;-79
2021/11/03 07:30:53;;;;;;;;;;;6.50;95.60;;;;;;5029299;28;19936;-78
2021/11/03 07:33:18;;;;;;;;;;;6.50;95.70;;;;;;5035688;28;20265;-79
2021/11/03 07:35:45;;;;;;;;;;;6.50;95.60;;;;;;5024668;28;19928;-79
2021/11/03 07:38:10;;;;;;;;;;;6.50;95.60;;;;;;5030059;28;19921;-79
2021/11/03 07:40:38;;;;;;;;;;;6.60;95.70;;;;;;5031680;28;20270;-79
2021/11/03 07:43:04;;;;;;;;;;;6.60;95.70;;;;;;5031057;28;19914;-79
2021/11/03 07:45:30;;;;;;;;;;;6.60;95.60;;;;;;5032026;28;19914;-80
2021/11/03 07:47:56;;;;;;;;;;;6.70;95.70;;;;;;5027291;28;19979;-80
2021/11/03 07:50:23;;;;;;;;;;;6.70;95.60;;;;;;5029411;28;19914;-79
2021/11/03 07:52:49;;;;;;;;;;;6.60;95.60;;;;;;5032921;28;19917;-80
2021/11/03 07:55:14;;;;;;;;;;;6.60;95.60;;;;;;5035283;28;20361;-79
2021/11/03 07:57:40;;;;;;;;;;;6.60;95.70;;;;;;5034415;28;19971;-79
2021/11/03 08:00:07;;;;;;;;;;;6.60;95.80;;;;;;5033661;28;19979;-79
2021/11/03 08:02:32;;;;;;;;;;;6.60;95.90;;;;;;5027178;28;19967;-79
2021/11/03 08:04:58;;;;;;;;;;;6.70;95.90;;;;;;5026747;28;19917;-78
2021/11/03 08:07:23;;;;;;;;;;;6.70;95.80;;;;;;5026764;28;19913;-79
2021/11/03 08:09:49;;;;;;;;;;;6.80;95.80;;;;;;5027869;28;19921;-79
2021/11/03 08:12:16;;;;;;;;;;;6.80;95.80;;;;;;5033147;28;19913;-79
2021/11/03 08:14:42;;;;;;;;;;;6.80;95.80;;;;;;5035167;28;20004;-80
2021/11/03 08:17:07;;;;;;;;;;;6.90;95.80;;;;;;5023983;28;20063;-79
2021/11/03 08:19:37;;;;;;;;;;;6.90;95.80;;;;;;5027423;28;19913;-79
2021/11/03 08:22:03;;;;;;;;;;;6.90;95.80;;;;;;5034398;28;19913;-79
2021/11/03 08:24:29;;;;;;;;;;;6.90;95.90;;;;;;5026430;28;19932;-78
2021/11/03 08:26:55;;;;;;;;;;;6.90;95.90;;;;;;5033447;28;19935;-79
2021/11/03 08:29:21;;;;;;;;;;;6.90;95.90;;;;;;5034113;28;19959;-79
2021/11/03 08:31:47;;;;;;;;;;;7.00;96.00;;;;;;5026685;28;19913;-79
2021/11/03 08:34:13;;;;;;;;;;;7.00;95.90;;;;;;5034616;28;19913;-79
2021/11/03 08:36:39;;;;;;;;;;;7.00;96.00;;;;;;5033502;28;20424;-79
2021/11/03 08:39:07;;;;;;;;;;;7.10;96.00;;;;;;5026501;28;19936;-78
2021/11/03 08:41:32;;;;;;;;;;;7.10;96.10;;;;;;5033360;28;19992;-78
2021/11/03 08:43:57;;;;;;;;;;;7.10;96.10;;;;;;5034303;28;19952;-78
2021/11/03 08:46:23;;;;;;;;;;;7.20;96.20;;;;;;5026394;28;20370;-78
2021/11/03 08:48:50;;;;;;;;;;;7.20;96.20;;;;;;5033933;28;19913;-78
2021/11/03 08:51:15;;;;;;;;;;;7.40;96.20;;;;;;5033979;28;19914;-78
2021/11/03 08:53:40;;;;;;;;;;;7.40;96.10;;;;;;5025752;28;19924;-78
2021/11/03 08:56:06;;;;;;;;;;;7.50;96.00;;;;;;5034078;28;19913;-78
2021/11/03 08:58:31;;;;;;;;;;;7.50;95.90;;;;;;5034083;28;19921;-79
2021/11/03 09:00:57;;;;;;;;;;;7.50;96.00;;;;;;5032029;28;19913;-78
2021/11/03 09:03:23;;;;;;;;;;;7.50;96.10;;;;;;5033944;28;20371;-78
2021/11/03 09:05:49;;;;;;;;;;;7.50;96.10;;;;;;5032720;28;19913;-78
2021/11/03 09:08:15;;;;;;;;;;;7.50;96.10;;;;;;5026571;28;19920;-78
2021/11/03 09:10:45;;;;;;;;;;;7.60;96.10;;;;;;5033315;28;20282;-78
2021/11/03 09:13:16;;;;;;;;;;;7.70;96.10;;;;;;5031809;28;20023;-79
2021/11/03 09:15:41;;;;;;;;;;;7.80;96.10;;;;;;5033605;28;20436;-79
2021/11/03 09:18:07;;;;;;;;;;;7.90;96.00;;;;;;5033230;28;20019;-79
2021/11/03 09:20:32;;;;;;;;;;;7.90;95.90;;;;;;5027771;28;19919;-78
2021/11/03 09:22:58;;;;;;;;;;;7.90;95.90;;;;;;5030762;28;20023;-78
2021/11/03 09:25:23;;;;;;;;;;;8.00;96.30;;;;;;5033558;28;19913;-78
2021/11/03 09:27:49;;;;;;;;;;;8.00;96.00;;;;;;5026281;28;19960;-78
2021/11/03 09:30:16;;;;;;;;;;;8.10;95.90;;;;;;5032531;28;20214;-78
2021/11/03 09:32:43;;;;;;;;;;;8.10;95.90;;;;;;5033600;28;19952;-78
2021/11/03 09:35:10;;;;;;;;;;;8.10;96.00;;;;;;5024633;28;19914;-78
2021/11/03 09:37:37;;;;;;;;;;;8.10;96.00;;;;;;5033273;28;19922;-78
2021/11/03 09:40:03;;;;;;;;;;;8.20;96.00;;;;;;5032824;28;19913;-77
2021/11/03 09:42:29;;;;;;;;;;;8.30;95.90;;;;;;5025223;28;19914;-78
2021/11/03 09:44:55;;;;;;;;;;;8.30;96.00;;;;;;5033306;28;19975;-78
2021/11/03 09:47:29;;;;;;;;;;;8.30;96.00;;;;;;5032843;28;19917;-78
2021/11/03 09:49:57;;;;;;;;;;;8.30;95.90;;;;;;5024360;28;19914;-78
2021/11/03 09:52:26;;;;;;;;;;;8.20;95.80;;;;;;5032413;28;19913;-77
2021/11/03 09:55:07;;;;;;;;;;;8.20;96.00;;;;;;5033341;28;19913;-78
2021/11/03 09:57:52;;;;;;;;;;;8.20;96.10;;;;;;5029731;28;19929;-77
2021/11/03 10:00:38;;;;;;;;;;;8.20;96.10;;;;;;5030423;28;19920;-76
2021/11/03 10:03:10;;;;;;;;;;;8.30;96.10;;;;;;5032764;28;19920;-77
2021/11/03 10:05:50;;;;;;;;;;;8.30;96.10;;;;;;5024003;28;19913;-78
2021/11/03 10:08:17;;;;;;;;;;;8.40;96.00;;;;;;5024905;28;19913;-77
2021/11/03 10:11:12;;;;;;;;;;;8.50;96.00;;;;;;5016871;28;20381;-78
2021/11/03 10:13:39;;;;;;;;;;;8.50;96.00;;;;;;5007433;28;19925;-77
2021/11/03 10:16:10;;;;;;;;;;;8.60;96.00;;;;;;5032747;28;20269;-79
2021/11/03 10:18:55;;;;;;;;;;;8.60;96.00;;;;;;5029649;28;19921;-79
2021/11/03 10:21:30;;;;;;;;;;;8.70;96.00;;;;;;5029458;28;19917;-79
2021/11/03 10:24:23;;;;;;;;;;;8.80;96.00;;;;;;5017794;28;19913;-79
2021/11/03 10:27:00;;;;;;;;;;;8.80;95.90;;;;;;5025306;28;19917;-79
2021/11/03 10:29:25;;;;;;;;;;;8.90;95.90;;;;;;5032434;28;19940;-79
2021/11/03 10:31:59;;;;;;;;;;;8.90;96.00;;;;;;5031928;28;19913;-79
2021/11/03 10:34:34;;;;;;;;;;;9.00;95.90;;;;;;5024791;28;20003;-79
2021/11/03 10:37:05;;;;;;;;;;;9.00;96.00;;;;;;5017959;28;19939;-79
2021/11/03 10:39:41;;;;;;;;;;;9.00;95.80;;;;;;5032412;28;20340;-79
2021/11/03 10:42:34;;;;;;;;;;;9.00;95.90;;;;;;5018493;28;19913;-78
2021/11/03 10:45:22;;;;;;;;;;;9.00;96.10;;;;;;5015253;28;19920;-78
2021/11/03 10:47:51;;;;;;;;;;;9.10;96.20;;;;;;5018198;28;19914;-78
2021/11/03 10:50:28;;;;;;;;;;;9.20;96.10;;;;;;5032336;28;19917;-78
2021/11/03 10:52:58;;;;;;;;;;;9.40;96.10;;;;;;5030748;28;19940;-78
2021/11/03 10:55:27;;;;;;;;;;;9.40;96.00;;;;;;5026016;28;19968;-78
2021/11/03 10:58:06;;;;;;;;;;;9.50;96.00;;;;;;5030581;28;19921;-78
2021/11/03 11:00:36;;;;;;;;;;;9.60;96.00;;;;;;5031314;28;19917;-78
2021/11/03 11:03:04;;;;;;;;;;;9.60;96.00;;;;;;5024201;28;19922;-78
2021/11/03 11:05:32;;;;;;;;;;;9.60;95.90;;;;;;5032336;28;19924;-78
2021/11/03 11:08:04;;;;;;;;;;;9.70;96.00;;;;;;5029777;28;20440;-78
2021/11/03 11:10:54;;;;;;;;;;;9.70;96.00;;;;;;5026999;28;19921;-78
2021/11/03 11:13:26;;;;;;;;;;;9.90;96.10;;;;;;5019033;28;20021;-78
2021/11/03 11:15:55;;;;;;;;;;;9.90;96.00;;;;;;5023358;28;19920;-79
2021/11/03 11:18:47;;;;;;;;;;;10.00;95.90;;;;;;5028578;28;19925;-79
2021/11/03 11:21:17;;;;;;;;;;;10.10;96.00;;;;;;5029040;28;20590;-79
2021/11/03 11:23:48;;;;;;;;;;;10.10;95.90;;;;;;5027848;28;19913;-79
2021/11/03 11:26:24;;;;;;;;;;;10.20;95.90;;;;;;5031890;28;20285;-79
2021/11/03 11:29:01;;;;;;;;;;;10.20;95.90;;;;;;5024856;28;19913;-79
2021/11/03 11:31:45;;;;;;;;;;;10.20;95.80;;;;;;5015784;28;19930;-79
2021/11/03 11:34:19;;;;;;;;;;;10.20;95.90;;;;;;5033056;28;19987;-79
2021/11/03 11:37:00;;;;;;;;;;;10.20;96.00;;;;;;5027708;28;20012;-79
2021/11/03 11:39:25;;;;;;;;;;;10.20;96.00;;;;;;5034102;28;19921;-79
2021/11/03 11:41:56;;;;;;;;;;;10.30;96.00;;;;;;5035651;28;20399;-79
2021/11/03 11:44:27;;;;;;;;;;;10.40;96.00;;;;;;5033989;28;19928;-79
2021/11/03 11:46:55;;;;;;;;;;;10.50;96.00;;;;;;5027330;28;20044;-79
2021/11/03 11:49:30;;;;;;;;;;;10.50;96.00;;;;;;5034987;28;20015;-79
2021/11/03 11:51:58;;;;;;;;;;;10.60;95.90;;;;;;5034851;28;19920;-79
2021/11/03 11:54:34;;;;;;;;;;;10.70;95.90;;;;;;5026007;28;19925;-81
2021/11/03 11:57:12;;;;;;;;;;;10.70;95.80;;;;;;5035222;28;19948;-80
2021/11/03 11:59:57;;;;;;;;;;;10.80;95.80;;;;;;5020623;28;19966;-82
2021/11/03 12:02:23;;;;;;;;;;;10.80;95.80;;;;;;5035021;28;19909;-80
2021/11/03 12:04:49;;;;;;;;;;;10.90;95.80;;;;;;5029621;28;19914;-83
2021/11/03 12:07:19;;;;;;;;;;;11.00;95.70;;;;;;5032552;28;19996;-83
2021/11/03 12:10:04;;;;;;;;;;;11.00;95.80;;;;;;5035179;28;19998;-80
2021/11/03 12:12:29;;;;;;;;;;;11.00;95.60;;;;;;5026239;28;19917;-80
2021/11/03 12:14:58;;;;;;;;;;;11.00;95.60;;;;;;5034540;28;19936;-82
2021/11/03 12:17:44;;;;;;;;;;;10.90;95.60;;;;;;5034225;28;19921;-80
2021/11/03 12:20:24;;;;;;;;;;;10.90;95.70;;;;;;5025918;28;20370;-81
2021/11/03 12:22:53;;;;;;;;;;;10.80;95.60;;;;;;5030492;28;20239;-82
2021/11/03 12:25:21;;;;;;;;;;;10.70;95.80;;;;;;5033782;28;19920;-80
2021/11/03 12:27:48;;;;;;;;;;;10.70;95.90;;;;;;5027693;28;19920;-81
2021/11/03 12:30:17;;;;;;;;;;;10.70;96.10;;;;;;5034466;28;19913;-79
2021/11/03 12:32:43;;;;;;;;;;;10.80;96.10;;;;;;5015778;28;19913;-81
2021/11/03 12:35:17;;;;;;;;;;;10.90;96.00;;;;;;5030506;28;19920;-80
2021/11/03 12:37:43;;;;;;;;;;;10.90;96.00;;;;;;5019250;28;19943;-81
2021/11/03 12:40:21;;;;;;;;;;;10.90;96.00;;;;;;5033746;28;19920;-80
2021/11/03 12:42:55;;;;;;;;;;;11.00;96.00;;;;;;5026008;28;19920;-80
2021/11/03 12:45:29;;;;;;;;;;;11.10;95.90;;;;;;5033224;28;19913;-80
2021/11/03 12:47:56;;;;;;;;;;;11.10;95.80;;;;;;5026625;28;19913;-80
2021/11/03 12:50:21;;;;;;;;;;;11.10;95.70;;;;;;5032593;28;20372;-81
2021/11/03 12:52:48;;;;;;;;;;;11.10;95.80;;;;;;5034310;28;19917;-80
2021/11/03 12:55:25;;;;;;;;;;;11.20;95.80;;;;;;5026428;28;19913;-80
2021/11/03 12:57:52;;;;;;;;;;;11.20;95.80;;;;;;5018468;28;19954;-80
2021/11/03 13:00:19;;;;;;;;;;;11.30;95.80;;;;;;5034028;28;19992;-81
2021/11/03 13:02:55;;;;;;;;;;;11.30;95.80;;;;;;5025318;28;21300;-80
2021/11/03 13:05:29;;;;;;;;;;;11.30;95.70;;;;;;5034029;28;19913;-80
2021/11/03 13:07:55;;;;;;;;;;;11.30;95.70;;;;;;5021669;28;19913;-80
2021/11/03 13:10:23;;;;;;;;;;;11.30;95.70;;;;;;5030053;28;20403;-81
2021/11/03 13:13:00;;;;;;;;;;;11.30;95.70;;;;;;5033015;28;19935;-81
2021/11/03 13:15:31;;;;;;;;;;;11.40;95.70;;;;;;5033313;28;19948;-81
2021/11/03 13:18:06;;;;;;;;;;;11.40;95.60;;;;;;5025200;28;20011;-81
2021/11/03 13:20:33;;;;;;;;;;;11.40;95.60;;;;;;5033281;28;20288;-81
2021/11/03 13:23:00;;;;;;;;;;;11.30;95.60;;;;;;5026216;28;20012;-81
2021/11/03 13:25:39;;;;;;;;;;;11.40;95.60;;;;;;5033319;28;19913;-81
2021/11/03 13:28:06;;;;;;;;;;;11.40;95.60;;;;;;5015009;28;19914;-82
2021/11/03 13:30:33;;;;;;;;;;;11.40;95.60;;;;;;5030143;28;19917;-80
2021/11/03 13:32:59;;;;;;;;;;;11.40;95.60;;;;;;5018342;28;19913;-81
2021/11/03 13:35:27;;;;;;;;;;;11.40;95.60;;;;;;5026636;28;20008;-81
2021/11/03 13:37:55;;;;;;;;;;;11.40;95.60;;;;;;5032416;28;19965;-81
2021/11/03 13:40:24;;;;;;;;;;;11.30;95.50;;;;;;5030979;28;19913;-80
2021/11/03 13:42:55;;;;;;;;;;;11.30;95.50;;;;;;5025207;28;19913;-81
2021/11/03 13:45:23;;;;;;;;;;;11.20;95.50;;;;;;5033294;28;20031;-81
2021/11/03 13:48:07;;;;;;;;;;;11.10;95.50;;;;;;5032661;28;19913;-80
2021/11/03 13:50:36;;;;;;;;;;;11.10;95.60;;;;;;5025485;28;19959;-81
2021/11/03 13:53:10;;;;;;;;;;;11.00;95.50;;;;;;5025257;28;20408;-80
2021/11/03 13:55:54;;;;;;;;;;;11.00;95.50;;;;;;5032715;28;20388;-81
2021/11/03 13:58:20;;;;;;;;;;;10.90;95.50;;;;;;5018734;28;19952;-81
2021/11/03 14:01:15;;;;;;;;;;;10.90;95.50;;;;;;5032109;28;19917;-80
2021/11/03 14:03:47;;;;;;;;;;;10.80;95.50;;;;;;5015351;28;19917;-80
2021/11/03 14:06:19;;;;;;;;;;;10.80;95.60;;;;;;5017746;28;20262;-80
2021/11/03 14:08:45;;;;;;;;;;;10.80;95.60;;;;;;5031189;28;20370;-80
2021/11/03 14:11:10;;;;;;;;;;;10.80;95.60;;;;;;5024658;28;19953;-80
2021/11/03 14:13:35;;;;;;;;;;;10.80;95.60;;;;;;5032764;28;19983;-80
2021/11/03 14:16:27;;;;;;;;;;;10.70;95.50;;;;;;5031593;28;20348;-80
2021/11/03 14:18:54;;;;;;;;;;;10.70;95.50;;;;;;5030379;28;19944;-80
2021/11/03 14:21:20;;;;;;;;;;;10.70;95.80;;;;;;5032672;28;19940;-80
2021/11/03 14:23:46;;;;;;;;;;;10.70;95.50;;;;;;5024513;28;19956;-80
2021/11/03 14:26:12;;;;;;;;;;;10.70;95.60;;;;;;5032256;28;20293;-80
2021/11/03 14:28:38;;;;;;;;;;;10.60;95.50;;;;;;5032787;28;19909;-80
2021/11/03 14:31:21;;;;;;;;;;;10.60;95.50;;;;;;5024105;28;20441;-79
2021/11/03 14:33:47;;;;;;;;;;;10.60;95.60;;;;;;5032620;28;19920;-79